sensor_id;sensor_type;location;lat;lon;timestamp;P1;durP1;ratioP1;P2;durP2;ratioP2
18387;SDS011;9320;50.256;19.026;2023-07-20T00:02:26;8.90;;;5.20;;
18387;SDS011;9320;50.256;19.026;2023-07-20T00:04:54;9.57;;;5.97;;
18387;SDS011;9320;50.256;19.026;2023-07-20T00:07:22;9.27;;;5.68;;
18387;SDS011;9320;50.256;19.026;2023-07-20T00:09:51;7.03;;;5.60;;
18387;SDS011;9320;50.256;19.026;2023-07-20T00:12:19;6.03;;;5.40;;
18387;SDS011;9320;50.256;19.026;2023-07-20T00:14:47;7.53;;;5.75;;
18387;SDS011;9320;50.256;19.026;2023-07-20T00:17:15;9.30;;;6.22;;
18387;SDS011;9320;50.256;19.026;2023-07-20T00:19:44;13.05;;;5.93;;
18387;SDS011;9320;50.256;19.026;2023-07-20T00:22:12;8.57;;;6.40;;
18387;SDS011;9320;50.256;19.026;2023-07-20T00:24:40;9.60;;;6.20;;
18387;SDS011;9320;50.256;19.026;2023-07-20T00:27:08;8.80;;;5.97;;
18387;SDS011;9320;50.256;19.026;2023-07-20T00:29:36;15.27;;;5.93;;
18387;SDS011;9320;50.256;19.026;2023-07-20T00:32:05;9.63;;;6.10;;
18387;SDS011;9320;50.256;19.026;2023-07-20T00:34:33;7.40;;;5.88;;
18387;SDS011;9320;50.256;19.026;2023-07-20T00:37:04;7.57;;;6.00;;
18387;SDS011;9320;50.256;19.026;2023-07-20T00:39:32;8.52;;;5.65;;
18387;SDS011;9320;50.256;19.026;2023-07-20T00:42:00;7.88;;;5.60;;
18387;SDS011;9320;50.256;19.026;2023-07-20T00:44:28;9.82;;;5.78;;
18387;SDS011;9320;50.256;19.026;2023-07-20T00:46:56;8.20;;;5.47;;
18387;SDS011;9320;50.256;19.026;2023-07-20T00:49:24;7.50;;;5.50;;
18387;SDS011;9320;50.256;19.026;2023-07-20T00:51:52;6.00;;;5.30;;
18387;SDS011;9320;50.256;19.026;2023-07-20T00:54:21;7.95;;;5.53;;
18387;SDS011;9320;50.256;19.026;2023-07-20T00:56:50;8.75;;;5.90;;
18387;SDS011;9320;50.256;19.026;2023-07-20T00:59:19;10.82;;;5.68;;
18387;SDS011;9320;50.256;19.026;2023-07-20T01:01:48;7.57;;;5.43;;
18387;SDS011;9320;50.256;19.026;2023-07-20T01:04:15;8.05;;;5.78;;
18387;SDS011;9320;50.256;19.026;2023-07-20T01:06:45;10.98;;;5.72;;
18387;SDS011;9320;50.256;19.026;2023-07-20T01:09:19;8.18;;;5.50;;
18387;SDS011;9320;50.256;19.026;2023-07-20T01:11:54;7.07;;;5.35;;
18387;SDS011;9320;50.256;19.026;2023-07-20T01:14:27;7.72;;;5.47;;
18387;SDS011;9320;50.256;19.026;2023-07-20T01:16:55;5.70;;;4.88;;
18387;SDS011;9320;50.256;19.026;2023-07-20T01:19:23;8.45;;;5.18;;
18387;SDS011;9320;50.256;19.026;2023-07-20T01:21:53;5.78;;;5.13;;
18387;SDS011;9320;50.256;19.026;2023-07-20T01:24:42;6.20;;;5.18;;
18387;SDS011;9320;50.256;19.026;2023-07-20T01:27:36;8.15;;;5.60;;
18387;SDS011;9320;50.256;19.026;2023-07-20T01:30:43;8.48;;;4.93;;
18387;SDS011;9320;50.256;19.026;2023-07-20T01:33:19;6.15;;;5.03;;
18387;SDS011;9320;50.256;19.026;2023-07-20T01:35:52;6.35;;;4.80;;
18387;SDS011;9320;50.256;19.026;2023-07-20T01:38:22;8.95;;;5.57;;
18387;SDS011;9320;50.256;19.026;2023-07-20T01:40:51;6.13;;;5.05;;
18387;SDS011;9320;50.256;19.026;2023-07-20T01:43:20;9.32;;;5.90;;
18387;SDS011;9320;50.256;19.026;2023-07-20T01:45:48;10.80;;;5.68;;
18387;SDS011;9320;50.256;19.026;2023-07-20T01:48:16;6.28;;;5.30;;
18387;SDS011;9320;50.256;19.026;2023-07-20T01:50:45;6.97;;;5.60;;
18387;SDS011;9320;50.256;19.026;2023-07-20T01:53:13;7.72;;;5.60;;
18387;SDS011;9320;50.256;19.026;2023-07-20T01:55:41;10.15;;;5.90;;
18387;SDS011;9320;50.256;19.026;2023-07-20T01:58:09;7.80;;;5.45;;
18387;SDS011;9320;50.256;19.026;2023-07-20T02:00:37;11.05;;;5.55;;
18387;SDS011;9320;50.256;19.026;2023-07-20T02:03:05;7.68;;;5.80;;
18387;SDS011;9320;50.256;19.026;2023-07-20T02:05:34;7.35;;;5.60;;
18387;SDS011;9320;50.256;19.026;2023-07-20T02:08:03;9.90;;;5.75;;
18387;SDS011;9320;50.256;19.026;2023-07-20T02:10:31;7.05;;;4.90;;
18387;SDS011;9320;50.256;19.026;2023-07-20T02:12:59;8.10;;;5.78;;
18387;SDS011;9320;50.256;19.026;2023-07-20T02:15:27;8.25;;;5.57;;
18387;SDS011;9320;50.256;19.026;2023-07-20T02:17:55;10.55;;;5.90;;
18387;SDS011;9320;50.256;19.026;2023-07-20T02:20:24;7.95;;;5.47;;
18387;SDS011;9320;50.256;19.026;2023-07-20T02:22:52;10.07;;;5.75;;
18387;SDS011;9320;50.256;19.026;2023-07-20T02:25:21;10.73;;;5.70;;
18387;SDS011;9320;50.256;19.026;2023-07-20T02:27:49;10.95;;;6.20;;
18387;SDS011;9320;50.256;19.026;2023-07-20T02:30:17;8.05;;;5.80;;
18387;SDS011;9320;50.256;19.026;2023-07-20T02:32:46;10.07;;;6.13;;
18387;SDS011;9320;50.256;19.026;2023-07-20T02:35:15;10.93;;;5.97;;
18387;SDS011;9320;50.256;19.026;2023-07-20T02:37:43;7.78;;;5.65;;
18387;SDS011;9320;50.256;19.026;2023-07-20T02:40:11;7.68;;;5.13;;
18387;SDS011;9320;50.256;19.026;2023-07-20T02:42:41;8.30;;;5.43;;
18387;SDS011;9320;50.256;19.026;2023-07-20T02:45:09;9.40;;;5.68;;
18387;SDS011;9320;50.256;19.026;2023-07-20T02:47:37;9.35;;;5.55;;
18387;SDS011;9320;50.256;19.026;2023-07-20T02:50:06;9.07;;;5.60;;
18387;SDS011;9320;50.256;19.026;2023-07-20T02:52:35;10.45;;;5.45;;
18387;SDS011;9320;50.256;19.026;2023-07-20T02:55:03;7.13;;;5.50;;
18387;SDS011;9320;50.256;19.026;2023-07-20T02:57:32;10.02;;;5.45;;
18387;SDS011;9320;50.256;19.026;2023-07-20T03:00:01;8.98;;;5.70;;
18387;SDS011;9320;50.256;19.026;2023-07-20T03:02:32;11.43;;;6.18;;
18387;SDS011;9320;50.256;19.026;2023-07-20T03:05:00;9.15;;;5.55;;
18387;SDS011;9320;50.256;19.026;2023-07-20T03:07:32;9.38;;;5.85;;
18387;SDS011;9320;50.256;19.026;2023-07-20T03:10:00;8.18;;;5.60;;
18387;SDS011;9320;50.256;19.026;2023-07-20T03:12:29;10.23;;;6.38;;
18387;SDS011;9320;50.256;19.026;2023-07-20T03:14:57;13.40;;;6.70;;
18387;SDS011;9320;50.256;19.026;2023-07-20T03:17:26;14.85;;;7.70;;
18387;SDS011;9320;50.256;19.026;2023-07-20T03:19:54;15.77;;;7.47;;
18387;SDS011;9320;50.256;19.026;2023-07-20T03:22:22;13.52;;;7.15;;
18387;SDS011;9320;50.256;19.026;2023-07-20T03:24:50;17.33;;;7.05;;
18387;SDS011;9320;50.256;19.026;2023-07-20T03:27:19;12.38;;;6.53;;
18387;SDS011;9320;50.256;19.026;2023-07-20T03:29:47;15.25;;;6.78;;
18387;SDS011;9320;50.256;19.026;2023-07-20T03:32:15;12.90;;;6.45;;
18387;SDS011;9320;50.256;19.026;2023-07-20T03:34:44;12.10;;;6.30;;
18387;SDS011;9320;50.256;19.026;2023-07-20T03:37:12;14.35;;;6.18;;
18387;SDS011;9320;50.256;19.026;2023-07-20T03:39:40;12.57;;;6.05;;
18387;SDS011;9320;50.256;19.026;2023-07-20T03:42:09;16.80;;;6.93;;
18387;SDS011;9320;50.256;19.026;2023-07-20T03:44:36;11.60;;;6.60;;
18387;SDS011;9320;50.256;19.026;2023-07-20T03:47:05;15.20;;;6.65;;
18387;SDS011;9320;50.256;19.026;2023-07-20T03:49:33;12.93;;;6.18;;
18387;SDS011;9320;50.256;19.026;2023-07-20T03:52:03;17.92;;;6.80;;
18387;SDS011;9320;50.256;19.026;2023-07-20T03:54:31;10.95;;;6.63;;
18387;SDS011;9320;50.256;19.026;2023-07-20T03:56:59;14.45;;;6.40;;
18387;SDS011;9320;50.256;19.026;2023-07-20T03:59:28;7.30;;;5.47;;
18387;SDS011;9320;50.256;19.026;2023-07-20T04:01:56;6.70;;;5.07;;
18387;SDS011;9320;50.256;19.026;2023-07-20T04:04:24;6.93;;;5.50;;
18387;SDS011;9320;50.256;19.026;2023-07-20T04:06:52;7.18;;;5.65;;
18387;SDS011;9320;50.256;19.026;2023-07-20T04:09:21;7.43;;;5.55;;
18387;SDS011;9320;50.256;19.026;2023-07-20T04:11:49;6.45;;;5.22;;
18387;SDS011;9320;50.256;19.026;2023-07-20T04:14:17;8.50;;;5.50;;
18387;SDS011;9320;50.256;19.026;2023-07-20T04:16:46;6.53;;;5.50;;
18387;SDS011;9320;50.256;19.026;2023-07-20T04:19:14;8.90;;;5.68;;
18387;SDS011;9320;50.256;19.026;2023-07-20T04:21:44;6.43;;;5.13;;
18387;SDS011;9320;50.256;19.026;2023-07-20T04:24:12;7.90;;;5.28;;
18387;SDS011;9320;50.256;19.026;2023-07-20T04:26:41;6.88;;;5.10;;
18387;SDS011;9320;50.256;19.026;2023-07-20T04:29:09;6.68;;;5.25;;
18387;SDS011;9320;50.256;19.026;2023-07-20T04:31:37;5.75;;;4.95;;
18387;SDS011;9320;50.256;19.026;2023-07-20T04:34:05;7.45;;;5.32;;
18387;SDS011;9320;50.256;19.026;2023-07-20T04:36:33;7.57;;;5.50;;
18387;SDS011;9320;50.256;19.026;2023-07-20T04:39:01;5.90;;;4.90;;
18387;SDS011;9320;50.256;19.026;2023-07-20T04:41:40;7.43;;;4.75;;
18387;SDS011;9320;50.256;19.026;2023-07-20T04:44:09;8.43;;;5.35;;
18387;SDS011;9320;50.256;19.026;2023-07-20T04:46:37;8.57;;;5.22;;
18387;SDS011;9320;50.256;19.026;2023-07-20T04:49:06;7.35;;;5.30;;
18387;SDS011;9320;50.256;19.026;2023-07-20T04:51:34;10.23;;;5.15;;
18387;SDS011;9320;50.256;19.026;2023-07-20T04:54:02;5.60;;;5.00;;
18387;SDS011;9320;50.256;19.026;2023-07-20T04:56:30;6.22;;;5.40;;
18387;SDS011;9320;50.256;19.026;2023-07-20T04:59:00;8.80;;;5.43;;
18387;SDS011;9320;50.256;19.026;2023-07-20T05:01:28;7.85;;;5.13;;
18387;SDS011;9320;50.256;19.026;2023-07-20T05:03:57;7.45;;;5.20;;
18387;SDS011;9320;50.256;19.026;2023-07-20T05:06:25;7.30;;;5.45;;
18387;SDS011;9320;50.256;19.026;2023-07-20T05:08:53;7.43;;;5.28;;
18387;SDS011;9320;50.256;19.026;2023-07-20T05:11:21;7.32;;;5.20;;
18387;SDS011;9320;50.256;19.026;2023-07-20T05:13:49;7.10;;;5.55;;
18387;SDS011;9320;50.256;19.026;2023-07-20T05:16:18;6.15;;;5.47;;
18387;SDS011;9320;50.256;19.026;2023-07-20T05:18:47;7.93;;;5.57;;
18387;SDS011;9320;50.256;19.026;2023-07-20T05:21:15;6.63;;;5.10;;
18387;SDS011;9320;50.256;19.026;2023-07-20T05:23:43;5.97;;;5.25;;
18387;SDS011;9320;50.256;19.026;2023-07-20T05:26:11;8.45;;;6.20;;
18387;SDS011;9320;50.256;19.026;2023-07-20T05:28:39;7.95;;;5.70;;
18387;SDS011;9320;50.256;19.026;2023-07-20T05:31:07;7.63;;;5.93;;
18387;SDS011;9320;50.256;19.026;2023-07-20T05:33:36;8.93;;;6.40;;
18387;SDS011;9320;50.256;19.026;2023-07-20T05:36:05;7.57;;;6.00;;
18387;SDS011;9320;50.256;19.026;2023-07-20T05:38:33;8.68;;;6.50;;
18387;SDS011;9320;50.256;19.026;2023-07-20T05:41:01;8.43;;;6.45;;
18387;SDS011;9320;50.256;19.026;2023-07-20T05:43:30;9.65;;;6.43;;
18387;SDS011;9320;50.256;19.026;2023-07-20T05:45:58;11.90;;;6.50;;
18387;SDS011;9320;50.256;19.026;2023-07-20T05:48:26;8.88;;;6.47;;
18387;SDS011;9320;50.256;19.026;2023-07-20T05:50:55;9.20;;;6.28;;
18387;SDS011;9320;50.256;19.026;2023-07-20T05:53:23;7.05;;;6.28;;
18387;SDS011;9320;50.256;19.026;2023-07-20T05:55:51;7.18;;;6.03;;
18387;SDS011;9320;50.256;19.026;2023-07-20T05:58:20;8.48;;;6.90;;
18387;SDS011;9320;50.256;19.026;2023-07-20T06:00:48;9.02;;;5.93;;
18387;SDS011;9320;50.256;19.026;2023-07-20T06:03:17;8.35;;;5.90;;
18387;SDS011;9320;50.256;19.026;2023-07-20T06:05:47;8.20;;;5.57;;
18387;SDS011;9320;50.256;19.026;2023-07-20T06:08:17;7.03;;;5.50;;
18387;SDS011;9320;50.256;19.026;2023-07-20T06:10:49;6.75;;;5.75;;
18387;SDS011;9320;50.256;19.026;2023-07-20T06:13:18;6.57;;;5.63;;
18387;SDS011;9320;50.256;19.026;2023-07-20T06:15:46;7.22;;;5.40;;
18387;SDS011;9320;50.256;19.026;2023-07-20T06:18:14;9.27;;;5.60;;
18387;SDS011;9320;50.256;19.026;2023-07-20T06:20:44;6.00;;;5.38;;
18387;SDS011;9320;50.256;19.026;2023-07-20T06:23:17;9.02;;;5.65;;
18387;SDS011;9320;50.256;19.026;2023-07-20T06:25:45;9.73;;;5.95;;
18387;SDS011;9320;50.256;19.026;2023-07-20T06:28:14;5.75;;;5.25;;
18387;SDS011;9320;50.256;19.026;2023-07-20T06:30:42;7.13;;;5.50;;
18387;SDS011;9320;50.256;19.026;2023-07-20T06:33:10;5.72;;;5.15;;
18387;SDS011;9320;50.256;19.026;2023-07-20T06:35:40;7.57;;;5.20;;
18387;SDS011;9320;50.256;19.026;2023-07-20T06:38:09;6.40;;;5.25;;
18387;SDS011;9320;50.256;19.026;2023-07-20T06:40:41;5.10;;;4.57;;
18387;SDS011;9320;50.256;19.026;2023-07-20T06:43:09;6.45;;;5.50;;
18387;SDS011;9320;50.256;19.026;2023-07-20T06:45:40;6.13;;;5.28;;
18387;SDS011;9320;50.256;19.026;2023-07-20T06:48:08;5.65;;;5.10;;
18387;SDS011;9320;50.256;19.026;2023-07-20T06:50:36;6.25;;;4.93;;
18387;SDS011;9320;50.256;19.026;2023-07-20T06:53:04;7.32;;;4.63;;
18387;SDS011;9320;50.256;19.026;2023-07-20T06:55:32;5.93;;;4.70;;
18387;SDS011;9320;50.256;19.026;2023-07-20T06:58:09;5.43;;;4.93;;
18387;SDS011;9320;50.256;19.026;2023-07-20T07:00:37;5.50;;;4.75;;
18387;SDS011;9320;50.256;19.026;2023-07-20T07:03:05;5.30;;;4.80;;
18387;SDS011;9320;50.256;19.026;2023-07-20T07:05:35;5.28;;;4.82;;
18387;SDS011;9320;50.256;19.026;2023-07-20T07:08:04;7.70;;;4.95;;
18387;SDS011;9320;50.256;19.026;2023-07-20T07:10:34;6.88;;;4.70;;
18387;SDS011;9320;50.256;19.026;2023-07-20T07:13:03;5.55;;;5.00;;
18387;SDS011;9320;50.256;19.026;2023-07-20T07:15:33;5.00;;;4.50;;
18387;SDS011;9320;50.256;19.026;2023-07-20T07:18:02;6.45;;;4.78;;
18387;SDS011;9320;50.256;19.026;2023-07-20T07:20:30;5.05;;;4.53;;
18387;SDS011;9320;50.256;19.026;2023-07-20T07:22:58;6.38;;;4.43;;
18387;SDS011;9320;50.256;19.026;2023-07-20T07:25:27;5.15;;;4.63;;
18387;SDS011;9320;50.256;19.026;2023-07-20T07:27:55;8.40;;;4.93;;
18387;SDS011;9320;50.256;19.026;2023-07-20T07:30:23;5.20;;;4.70;;
18387;SDS011;9320;50.256;19.026;2023-07-20T07:32:52;6.63;;;4.80;;
18387;SDS011;9320;50.256;19.026;2023-07-20T07:35:20;9.38;;;4.97;;
18387;SDS011;9320;50.256;19.026;2023-07-20T07:37:50;5.28;;;4.72;;
18387;SDS011;9320;50.256;19.026;2023-07-20T07:40:37;6.55;;;5.30;;
18387;SDS011;9320;50.256;19.026;2023-07-20T07:43:06;7.22;;;4.50;;
18387;SDS011;9320;50.256;19.026;2023-07-20T07:45:35;4.97;;;4.47;;
18387;SDS011;9320;50.256;19.026;2023-07-20T07:48:05;5.18;;;4.45;;
18387;SDS011;9320;50.256;19.026;2023-07-20T07:50:34;6.10;;;4.38;;
18387;SDS011;9320;50.256;19.026;2023-07-20T07:53:02;4.70;;;4.22;;
18387;SDS011;9320;50.256;19.026;2023-07-20T07:55:30;5.57;;;4.45;;
18387;SDS011;9320;50.256;19.026;2023-07-20T07:57:59;6.68;;;4.07;;
18387;SDS011;9320;50.256;19.026;2023-07-20T08:00:27;4.50;;;4.20;;
18387;SDS011;9320;50.256;19.026;2023-07-20T08:02:55;5.22;;;4.30;;
18387;SDS011;9320;50.256;19.026;2023-07-20T08:05:25;4.75;;;4.35;;
18387;SDS011;9320;50.256;19.026;2023-07-20T08:07:53;5.70;;;4.38;;
18387;SDS011;9320;50.256;19.026;2023-07-20T08:10:21;5.85;;;4.43;;
18387;SDS011;9320;50.256;19.026;2023-07-20T08:12:50;4.80;;;4.30;;
18387;SDS011;9320;50.256;19.026;2023-07-20T08:15:18;12.98;;;4.85;;
18387;SDS011;9320;50.256;19.026;2023-07-20T08:17:46;6.38;;;4.15;;
18387;SDS011;9320;50.256;19.026;2023-07-20T08:20:15;6.35;;;4.70;;
18387;SDS011;9320;50.256;19.026;2023-07-20T08:22:45;5.40;;;4.32;;
18387;SDS011;9320;50.256;19.026;2023-07-20T08:25:14;5.95;;;4.50;;
18387;SDS011;9320;50.256;19.026;2023-07-20T08:27:42;7.63;;;5.03;;
18387;SDS011;9320;50.256;19.026;2023-07-20T08:30:12;6.90;;;4.80;;
18387;SDS011;9320;50.256;19.026;2023-07-20T08:32:41;6.35;;;5.18;;
18387;SDS011;9320;50.256;19.026;2023-07-20T08:35:09;5.70;;;5.03;;
18387;SDS011;9320;50.256;19.026;2023-07-20T08:37:37;8.98;;;5.40;;
18387;SDS011;9320;50.256;19.026;2023-07-20T08:40:07;7.72;;;5.95;;
18387;SDS011;9320;50.256;19.026;2023-07-20T08:42:36;7.13;;;6.05;;
18387;SDS011;9320;50.256;19.026;2023-07-20T08:45:06;10.82;;;6.57;;
18387;SDS011;9320;50.256;19.026;2023-07-20T08:47:36;7.57;;;6.07;;
18387;SDS011;9320;50.256;19.026;2023-07-20T08:50:05;10.25;;;7.00;;
18387;SDS011;9320;50.256;19.026;2023-07-20T08:52:36;10.82;;;6.28;;
18387;SDS011;9320;50.256;19.026;2023-07-20T08:55:06;9.85;;;6.47;;
18387;SDS011;9320;50.256;19.026;2023-07-20T08:57:35;11.88;;;6.72;;
18387;SDS011;9320;50.256;19.026;2023-07-20T09:00:05;10.30;;;6.63;;
18387;SDS011;9320;50.256;19.026;2023-07-20T09:02:39;6.72;;;5.95;;
18387;SDS011;9320;50.256;19.026;2023-07-20T09:05:08;7.32;;;6.40;;
18387;SDS011;9320;50.256;19.026;2023-07-20T09:07:36;9.85;;;6.30;;
18387;SDS011;9320;50.256;19.026;2023-07-20T09:10:08;6.85;;;6.10;;
18387;SDS011;9320;50.256;19.026;2023-07-20T09:12:37;11.18;;;7.20;;
18387;SDS011;9320;50.256;19.026;2023-07-20T09:15:06;7.90;;;7.10;;
18387;SDS011;9320;50.256;19.026;2023-07-20T09:17:35;11.00;;;6.75;;
18387;SDS011;9320;50.256;19.026;2023-07-20T09:20:04;15.57;;;6.90;;
18387;SDS011;9320;50.256;19.026;2023-07-20T09:22:36;11.07;;;7.00;;
18387;SDS011;9320;50.256;19.026;2023-07-20T09:25:08;12.18;;;7.75;;
18387;SDS011;9320;50.256;19.026;2023-07-20T09:27:40;8.05;;;7.15;;
18387;SDS011;9320;50.256;19.026;2023-07-20T09:30:09;8.07;;;7.28;;
18387;SDS011;9320;50.256;19.026;2023-07-20T09:32:44;9.85;;;7.70;;
18387;SDS011;9320;50.256;19.026;2023-07-20T09:35:16;7.95;;;7.10;;
18387;SDS011;9320;50.256;19.026;2023-07-20T09:37:49;12.75;;;7.40;;
18387;SDS011;9320;50.256;19.026;2023-07-20T09:40:41;12.40;;;7.80;;
18387;SDS011;9320;50.256;19.026;2023-07-20T09:43:12;9.75;;;8.35;;
18387;SDS011;9320;50.256;19.026;2023-07-20T09:45:45;10.57;;;7.40;;
18387;SDS011;9320;50.256;19.026;2023-07-20T09:48:17;12.65;;;6.65;;
18387;SDS011;9320;50.256;19.026;2023-07-20T09:50:52;12.13;;;6.72;;
18387;SDS011;9320;50.256;19.026;2023-07-20T09:53:24;8.95;;;7.40;;
18387;SDS011;9320;50.256;19.026;2023-07-20T09:55:54;10.38;;;7.78;;
18387;SDS011;9320;50.256;19.026;2023-07-20T09:58:22;11.32;;;7.65;;
18387;SDS011;9320;50.256;19.026;2023-07-20T10:00:52;9.30;;;6.93;;
18387;SDS011;9320;50.256;19.026;2023-07-20T10:03:26;9.73;;;7.32;;
18387;SDS011;9320;50.256;19.026;2023-07-20T10:06:02;9.70;;;7.20;;
18387;SDS011;9320;50.256;19.026;2023-07-20T10:08:34;9.07;;;7.20;;
18387;SDS011;9320;50.256;19.026;2023-07-20T10:11:10;8.38;;;7.00;;
18387;SDS011;9320;50.256;19.026;2023-07-20T10:13:39;10.95;;;7.07;;
18387;SDS011;9320;50.256;19.026;2023-07-20T10:16:11;11.93;;;7.53;;
18387;SDS011;9320;50.256;19.026;2023-07-20T10:18:46;7.75;;;7.03;;
18387;SDS011;9320;50.256;19.026;2023-07-20T10:21:17;8.40;;;7.50;;
18387;SDS011;9320;50.256;19.026;2023-07-20T10:23:52;9.90;;;7.15;;
18387;SDS011;9320;50.256;19.026;2023-07-20T10:26:25;8.88;;;6.47;;
18387;SDS011;9320;50.256;19.026;2023-07-20T10:28:54;8.88;;;6.60;;
18387;SDS011;9320;50.256;19.026;2023-07-20T10:31:23;8.55;;;6.57;;
18387;SDS011;9320;50.256;19.026;2023-07-20T10:33:56;6.68;;;5.82;;
18387;SDS011;9320;50.256;19.026;2023-07-20T10:36:25;9.93;;;5.65;;
18387;SDS011;9320;50.256;19.026;2023-07-20T10:38:57;7.78;;;5.82;;
18387;SDS011;9320;50.256;19.026;2023-07-20T10:41:29;6.45;;;5.70;;
18387;SDS011;9320;50.256;19.026;2023-07-20T10:44:01;7.28;;;6.18;;
18387;SDS011;9320;50.256;19.026;2023-07-20T10:46:34;8.13;;;5.50;;
18387;SDS011;9320;50.256;19.026;2023-07-20T10:49:10;6.22;;;5.50;;
18387;SDS011;9320;50.256;19.026;2023-07-20T10:51:39;6.88;;;5.40;;
18387;SDS011;9320;50.256;19.026;2023-07-20T10:54:08;9.50;;;5.47;;
18387;SDS011;9320;50.256;19.026;2023-07-20T10:56:38;6.05;;;5.45;;
18387;SDS011;9320;50.256;19.026;2023-07-20T10:59:17;6.45;;;5.38;;
18387;SDS011;9320;50.256;19.026;2023-07-20T11:01:47;6.55;;;5.80;;
18387;SDS011;9320;50.256;19.026;2023-07-20T11:04:16;6.00;;;4.95;;
18387;SDS011;9320;50.256;19.026;2023-07-20T11:06:45;6.13;;;4.90;;
18387;SDS011;9320;50.256;19.026;2023-07-20T11:09:14;5.05;;;4.55;;
18387;SDS011;9320;50.256;19.026;2023-07-20T11:11:44;5.63;;;5.00;;
18387;SDS011;9320;50.256;19.026;2023-07-20T11:14:20;5.88;;;4.50;;
18387;SDS011;9320;50.256;19.026;2023-07-20T11:16:50;5.63;;;4.70;;
18387;SDS011;9320;50.256;19.026;2023-07-20T11:19:19;5.75;;;4.60;;
18387;SDS011;9320;50.256;19.026;2023-07-20T11:21:53;5.10;;;4.60;;
18387;SDS011;9320;50.256;19.026;2023-07-20T11:24:29;5.13;;;4.63;;
18387;SDS011;9320;50.256;19.026;2023-07-20T11:27:00;5.95;;;5.38;;
18387;SDS011;9320;50.256;19.026;2023-07-20T11:29:28;4.80;;;4.40;;
18387;SDS011;9320;50.256;19.026;2023-07-20T11:32:00;7.50;;;4.88;;
18387;SDS011;9320;50.256;19.026;2023-07-20T11:34:31;6.00;;;4.50;;
18387;SDS011;9320;50.256;19.026;2023-07-20T11:37:00;5.05;;;4.60;;
18387;SDS011;9320;50.256;19.026;2023-07-20T11:39:32;4.88;;;4.47;;
18387;SDS011;9320;50.256;19.026;2023-07-20T11:42:03;5.72;;;4.35;;
18387;SDS011;9320;50.256;19.026;2023-07-20T11:44:33;4.65;;;4.20;;
18387;SDS011;9320;50.256;19.026;2023-07-20T11:47:01;5.55;;;4.45;;
18387;SDS011;9320;50.256;19.026;2023-07-20T11:49:30;5.40;;;4.25;;
18387;SDS011;9320;50.256;19.026;2023-07-20T11:52:03;6.85;;;4.40;;
18387;SDS011;9320;50.256;19.026;2023-07-20T11:54:32;4.70;;;4.30;;
18387;SDS011;9320;50.256;19.026;2023-07-20T11:57:01;9.32;;;4.57;;
18387;SDS011;9320;50.256;19.026;2023-07-20T11:59:32;5.80;;;4.50;;
18387;SDS011;9320;50.256;19.026;2023-07-20T12:02:01;4.97;;;4.45;;
18387;SDS011;9320;50.256;19.026;2023-07-20T12:04:30;5.18;;;4.63;;
18387;SDS011;9320;50.256;19.026;2023-07-20T12:06:59;6.18;;;4.53;;
18387;SDS011;9320;50.256;19.026;2023-07-20T12:09:27;5.78;;;4.55;;
18387;SDS011;9320;50.256;19.026;2023-07-20T12:12:18;9.40;;;4.72;;
18387;SDS011;9320;50.256;19.026;2023-07-20T12:14:46;6.03;;;4.43;;
18387;SDS011;9320;50.256;19.026;2023-07-20T12:17:14;5.93;;;5.00;;
18387;SDS011;9320;50.256;19.026;2023-07-20T12:19:43;7.57;;;4.93;;
18387;SDS011;9320;50.256;19.026;2023-07-20T12:22:12;4.88;;;4.13;;
18387;SDS011;9320;50.256;19.026;2023-07-20T12:24:41;7.20;;;4.70;;
18387;SDS011;9320;50.256;19.026;2023-07-20T12:27:12;6.25;;;4.60;;
18387;SDS011;9320;50.256;19.026;2023-07-20T12:29:46;6.32;;;4.90;;
18387;SDS011;9320;50.256;19.026;2023-07-20T12:32:14;5.18;;;4.57;;
18387;SDS011;9320;50.256;19.026;2023-07-20T12:34:42;8.10;;;4.88;;
18387;SDS011;9320;50.256;19.026;2023-07-20T12:37:10;6.47;;;4.65;;
18387;SDS011;9320;50.256;19.026;2023-07-20T12:39:38;5.47;;;4.82;;
18387;SDS011;9320;50.256;19.026;2023-07-20T12:42:07;6.00;;;5.00;;
18387;SDS011;9320;50.256;19.026;2023-07-20T12:44:35;11.43;;;4.78;;
18387;SDS011;9320;50.256;19.026;2023-07-20T12:47:05;5.75;;;4.82;;
18387;SDS011;9320;50.256;19.026;2023-07-20T12:49:33;5.20;;;4.70;;
18387;SDS011;9320;50.256;19.026;2023-07-20T12:52:01;5.70;;;4.45;;
18387;SDS011;9320;50.256;19.026;2023-07-20T12:54:29;5.13;;;4.60;;
18387;SDS011;9320;50.256;19.026;2023-07-20T12:56:57;7.55;;;4.50;;
18387;SDS011;9320;50.256;19.026;2023-07-20T12:59:28;5.13;;;4.55;;
18387;SDS011;9320;50.256;19.026;2023-07-20T13:01:56;4.53;;;4.22;;
18387;SDS011;9320;50.256;19.026;2023-07-20T13:04:26;6.93;;;4.40;;
18387;SDS011;9320;50.256;19.026;2023-07-20T13:06:54;5.55;;;4.35;;
18387;SDS011;9320;50.256;19.026;2023-07-20T13:09:24;8.55;;;4.60;;
18387;SDS011;9320;50.256;19.026;2023-07-20T13:11:52;11.07;;;4.70;;
18387;SDS011;9320;50.256;19.026;2023-07-20T13:14:20;7.18;;;4.60;;
18387;SDS011;9320;50.256;19.026;2023-07-20T13:16:48;4.60;;;4.20;;
18387;SDS011;9320;50.256;19.026;2023-07-20T13:19:16;5.78;;;4.28;;
18387;SDS011;9320;50.256;19.026;2023-07-20T13:21:46;5.05;;;4.35;;
18387;SDS011;9320;50.256;19.026;2023-07-20T13:24:14;5.72;;;4.30;;
18387;SDS011;9320;50.256;19.026;2023-07-20T13:26:42;4.75;;;4.22;;
18387;SDS011;9320;50.256;19.026;2023-07-20T13:29:10;6.13;;;4.32;;
18387;SDS011;9320;50.256;19.026;2023-07-20T13:31:38;4.60;;;4.20;;
18387;SDS011;9320;50.256;19.026;2023-07-20T13:34:08;5.75;;;4.13;;
18387;SDS011;9320;50.256;19.026;2023-07-20T13:36:36;5.65;;;4.25;;
18387;SDS011;9320;50.256;19.026;2023-07-20T13:39:05;4.72;;;4.15;;
18387;SDS011;9320;50.256;19.026;2023-07-20T13:41:35;8.02;;;3.97;;
18387;SDS011;9320;50.256;19.026;2023-07-20T13:44:03;5.85;;;4.50;;
18387;SDS011;9320;50.256;19.026;2023-07-20T13:46:32;5.40;;;4.60;;
18387;SDS011;9320;50.256;19.026;2023-07-20T13:49:03;4.75;;;4.28;;
18387;SDS011;9320;50.256;19.026;2023-07-20T13:51:38;4.63;;;4.10;;
18387;SDS011;9320;50.256;19.026;2023-07-20T13:54:08;8.38;;;4.50;;
18387;SDS011;9320;50.256;19.026;2023-07-20T13:56:39;4.75;;;4.10;;
18387;SDS011;9320;50.256;19.026;2023-07-20T13:59:08;5.68;;;4.30;;
18387;SDS011;9320;50.256;19.026;2023-07-20T14:01:36;7.78;;;4.80;;
18387;SDS011;9320;50.256;19.026;2023-07-20T14:04:04;7.20;;;4.38;;
18387;SDS011;9320;50.256;19.026;2023-07-20T14:06:34;7.30;;;4.90;;
18387;SDS011;9320;50.256;19.026;2023-07-20T14:09:02;6.60;;;4.60;;
18387;SDS011;9320;50.256;19.026;2023-07-20T14:11:32;6.10;;;5.00;;
18387;SDS011;9320;50.256;19.026;2023-07-20T14:14:03;7.95;;;4.53;;
18387;SDS011;9320;50.256;19.026;2023-07-20T14:16:31;5.90;;;4.72;;
18387;SDS011;9320;50.256;19.026;2023-07-20T14:18:59;5.55;;;4.25;;
18387;SDS011;9320;50.256;19.026;2023-07-20T14:21:29;8.18;;;4.25;;
18387;SDS011;9320;50.256;19.026;2023-07-20T14:23:57;7.32;;;4.47;;
18387;SDS011;9320;50.256;19.026;2023-07-20T14:26:27;5.57;;;4.05;;
18387;SDS011;9320;50.256;19.026;2023-07-20T14:29:00;4.50;;;4.10;;
18387;SDS011;9320;50.256;19.026;2023-07-20T14:31:28;4.70;;;4.18;;
18387;SDS011;9320;50.256;19.026;2023-07-20T14:33:58;5.60;;;4.10;;
18387;SDS011;9320;50.256;19.026;2023-07-20T14:36:26;6.40;;;4.10;;
18387;SDS011;9320;50.256;19.026;2023-07-20T14:38:55;5.45;;;4.28;;
18387;SDS011;9320;50.256;19.026;2023-07-20T14:41:24;4.53;;;4.13;;
18387;SDS011;9320;50.256;19.026;2023-07-20T14:43:52;5.47;;;4.43;;
18387;SDS011;9320;50.256;19.026;2023-07-20T14:46:22;4.65;;;4.13;;
18387;SDS011;9320;50.256;19.026;2023-07-20T14:48:50;4.20;;;3.85;;
18387;SDS011;9320;50.256;19.026;2023-07-20T14:51:19;4.45;;;3.72;;
18387;SDS011;9320;50.256;19.026;2023-07-20T14:53:47;6.35;;;3.83;;
18387;SDS011;9320;50.256;19.026;2023-07-20T14:56:15;4.50;;;4.10;;
18387;SDS011;9320;50.256;19.026;2023-07-20T14:58:43;6.00;;;3.72;;
18387;SDS011;9320;50.256;19.026;2023-07-20T15:01:11;6.05;;;4.65;;